createdAt,value
2022-12-19T00:01:56.586Z,101519.72
2022-12-19T00:04:24.499Z,101514.28
2022-12-19T00:06:52.449Z,101501.66
2022-12-19T00:09:20.372Z,101490.78
2022-12-19T00:11:48.235Z,101470.00
2022-12-19T00:14:15.970Z,101449.47
2022-12-19T00:16:43.924Z,101476.16
2022-12-19T00:19:12.023Z,101474.75
2022-12-19T00:21:39.845Z,101469.63
2022-12-19T00:24:14.536Z,101468.78
2022-12-19T00:26:49.355Z,101473.66
2022-12-19T00:29:17.122Z,101469.22
2022-12-19T00:31:45.000Z,101471.25
2022-12-19T00:34:12.990Z,101470.53
2022-12-19T00:36:40.786Z,101460.66
2022-12-19T00:39:10.341Z,101470.84
2022-12-19T00:41:40.077Z,101472.88
2022-12-19T00:44:09.724Z,101468.44
2022-12-19T00:46:37.522Z,101471.16
2022-12-19T00:49:05.337Z,101471.47
2022-12-19T00:51:33.111Z,101469.75
2022-12-19T00:54:00.985Z,101461.91
2022-12-19T00:56:30.005Z,101460.19
2022-12-19T00:58:57.857Z,101455.19
2022-12-19T01:01:25.823Z,101442.03
2022-12-19T01:04:26.548Z,101440.63
2022-12-19T01:06:41.574Z,101432.09
2022-12-19T01:09:09.493Z,101440.94
2022-12-19T01:11:54.614Z,101434.63
2022-12-19T01:14:23.453Z,101430.53
2022-12-19T01:16:51.254Z,101440.94
2022-12-19T01:19:19.051Z,101438.91
2022-12-19T01:21:46.763Z,101440.25
2022-12-19T01:24:15.827Z,101457.28
2022-12-19T01:26:47.071Z,101465.97
2022-12-19T01:29:14.792Z,101464.66
2022-12-19T01:31:42.621Z,101459.38
2022-12-19T01:34:10.515Z,101453.22
2022-12-19T01:36:39.878Z,101449.50
2022-12-19T01:39:07.978Z,101445.78
2022-12-19T01:41:35.819Z,101441.19
2022-12-19T01:44:03.597Z,101422.31
2022-12-19T01:46:31.470Z,101420.56
2022-12-19T01:48:59.203Z,101414.13
2022-12-19T01:51:26.922Z,101416.84
2022-12-19T01:53:54.636Z,101400.53
2022-12-19T01:56:22.385Z,101395.09
2022-12-19T02:39:26.205Z,101326.19
2022-12-19T02:41:55.559Z,101319.03
2022-12-19T02:44:23.538Z,101330.06
2022-12-19T02:46:51.333Z,101333.09
2022-12-19T02:49:26.006Z,101329.53
2022-12-19T02:51:59.029Z,101337.31
2022-12-19T02:54:27.072Z,101333.88
2022-12-19T02:56:54.938Z,101328.28
2022-12-19T02:59:22.781Z,101318.59
2022-12-19T03:01:51.085Z,101313.28
2022-12-19T03:04:19.158Z,101311.44
2022-12-19T03:06:46.980Z,101326.75
2022-12-19T03:09:15.755Z,101312.13
2022-12-19T03:11:43.602Z,101317.56
2022-12-19T03:14:11.368Z,101325.91
2022-12-19T03:16:39.224Z,101327.75
2022-12-19T03:19:07.206Z,101335.91
2022-12-19T03:21:34.977Z,101335.03
2022-12-19T03:24:02.860Z,101342.34
2022-12-19T03:26:30.671Z,101332.31
2022-12-19T03:28:58.456Z,101345.63
2022-12-19T03:31:26.290Z,101341.75
2022-12-19T03:33:54.090Z,101337.69
2022-12-19T03:36:21.891Z,101326.81
2022-12-19T03:38:49.864Z,101331.94
2022-12-19T03:41:37.687Z,101334.34
2022-12-19T03:44:04.493Z,101328.22
2022-12-19T03:46:32.407Z,101320.75
2022-12-19T03:49:00.177Z,101319.03
2022-12-19T03:51:28.426Z,101323.31
2022-12-19T03:53:56.407Z,101327.53
2022-12-19T03:56:24.166Z,101324.81
2022-12-19T03:58:51.910Z,101316.97
2022-12-19T04:01:21.730Z,101315.94
2022-12-19T04:03:50.591Z,101322.72
2022-12-19T04:06:18.453Z,101322.84
2022-12-19T04:08:46.506Z,101316.00
2022-12-19T04:11:14.491Z,101318.03
2022-12-19T04:13:42.271Z,101314.75
2022-12-19T04:16:10.221Z,101321.22
2022-12-19T04:18:38.042Z,101318.66
2022-12-19T04:21:05.881Z,101322.22
2022-12-19T04:23:33.672Z,101318.66
2022-12-19T04:26:02.304Z,101315.59
2022-12-19T04:28:30.090Z,101322.06
2022-12-19T04:30:57.884Z,101311.06
2022-12-19T04:33:25.839Z,101298.31
2022-12-19T04:35:53.667Z,101307.31
2022-12-19T04:38:24.228Z,101311.72
2022-12-19T04:40:52.182Z,101310.03
2022-12-19T04:43:20.062Z,101312.59
2022-12-19T04:45:50.551Z,101299.16
2022-12-19T04:48:22.068Z,101291.84
2022-12-19T04:50:49.851Z,101289.00
2022-12-19T04:53:17.658Z,101293.97
2022-12-19T04:55:45.478Z,101294.81
2022-12-19T04:58:16.343Z,101291.06
2022-12-19T05:00:47.095Z,101285.31
2022-12-19T05:03:14.973Z,101290.44
2022-12-19T05:05:42.814Z,101292.47
2022-12-19T05:08:11.208Z,101293.16
2022-12-19T05:10:39.169Z,101298.59
2022-12-19T05:13:07.682Z,101304.03
2022-12-19T05:15:35.691Z,101296.91
2022-12-19T05:18:04.200Z,101284.47
2022-12-19T05:20:32.065Z,101288.34
2022-12-19T05:23:03.208Z,101282.69
2022-12-19T05:25:35.273Z,101297.28
2022-12-19T05:28:03.072Z,101296.03
2022-12-19T05:30:31.646Z,101303.19
2022-12-19T05:32:59.396Z,101295.72
2022-12-19T05:35:27.299Z,101297.47
2022-12-19T05:37:55.197Z,101293.19
2022-12-19T05:40:23.027Z,101290.28
2022-12-19T05:42:50.905Z,101290.28
2022-12-19T05:45:18.707Z,101294.03
2022-12-19T05:47:46.724Z,101296.44
2022-12-19T05:50:14.564Z,101293.00
2022-12-19T05:52:42.413Z,101297.13
2022-12-19T05:55:10.257Z,101292.41
2022-12-19T05:57:38.348Z,101290.53
2022-12-19T06:00:08.557Z,101300.25
2022-12-19T06:02:36.419Z,101300.09
2022-12-19T06:05:04.343Z,101298.25
2022-12-19T06:07:32.172Z,101287.66
2022-12-19T06:10:00.164Z,101292.09
2022-12-19T06:12:28.003Z,101289.19
2022-12-19T06:14:55.814Z,101288.53
2022-12-19T06:17:23.605Z,101292.09
2022-12-19T06:19:51.383Z,101291.06
2022-12-19T06:22:19.178Z,101299.09
2022-12-19T06:24:47.022Z,101296.50
2022-12-19T06:27:14.806Z,101294.50
2022-12-19T06:29:42.565Z,101285.63
2022-12-19T06:32:10.391Z,101293.78
2022-12-19T06:37:26.296Z,101282.38
2022-12-19T06:39:54.105Z,101289.69
2022-12-19T06:42:23.982Z,101292.69
2022-12-19T06:44:51.859Z,101289.97
2022-12-19T06:47:19.635Z,101283.69
2022-12-19T06:49:50.400Z,101278.44
2022-12-19T06:52:18.208Z,101263.09
2022-12-19T06:54:46.296Z,101252.22
2022-12-19T06:57:14.030Z,101254.22
2022-12-19T06:59:41.782Z,101257.59
2022-12-19T07:02:09.662Z,101251.44
2022-12-19T07:04:37.540Z,101252.47
2022-12-19T07:07:05.331Z,101248.19
2022-12-19T07:09:33.189Z,101250.06
2022-12-19T07:12:01.069Z,101250.06
2022-12-19T07:14:28.836Z,101248.19
2022-12-19T07:16:56.665Z,101244.63
2022-12-19T07:19:24.480Z,101258.88
2022-12-19T07:21:52.258Z,101268.06
2022-12-19T07:24:20.006Z,101274.34
2022-12-19T07:26:47.809Z,101278.94
2022-12-19T07:29:15.740Z,101276.22
2022-12-19T07:31:43.565Z,101270.78
2022-12-19T07:34:11.429Z,101278.94
2022-12-19T07:36:39.285Z,101266.06
2022-12-19T07:39:07.088Z,101287.81
2022-12-19T07:41:34.887Z,101287.94
2022-12-19T07:44:02.771Z,101290.66
2022-12-19T07:46:31.175Z,101289.69
2022-12-19T07:49:02.122Z,101297.53
2022-12-19T07:51:30.214Z,101284.06
2022-12-19T07:53:58.792Z,101282.19
2022-12-19T07:56:27.612Z,101276.75
2022-12-19T07:58:55.496Z,101272.03
2022-12-19T08:01:23.440Z,101282.59
2022-12-19T08:03:51.274Z,101286.31
2022-12-19T08:06:19.067Z,101289.19
2022-12-19T08:08:46.876Z,101280.34
2022-12-19T08:11:15.180Z,101274.03
2022-12-19T08:13:46.425Z,101270.34
2022-12-19T08:16:14.727Z,101275.19
2022-12-19T08:18:42.622Z,101271.50
2022-12-19T08:21:10.419Z,101269.63
2022-12-19T08:23:38.804Z,101270.78
2022-12-19T08:26:06.626Z,101269.09
2022-12-19T08:28:34.471Z,101257.19
2022-12-19T08:31:02.306Z,101258.03
2022-12-19T08:33:30.251Z,101258.88
2022-12-19T08:35:58.108Z,101254.78
2022-12-19T08:38:25.874Z,101254.09
2022-12-19T08:40:54.046Z,101255.09
2022-12-19T08:43:21.919Z,101256.09
2022-12-19T08:45:49.761Z,101247.41
2022-12-19T08:48:17.601Z,101236.53
2022-12-19T08:50:45.461Z,101246.38
2022-12-19T08:53:13.297Z,101247.25
2022-12-19T08:55:41.152Z,101235.69
2022-12-19T08:58:09.009Z,101236.69
2022-12-19T09:00:36.793Z,101232.97
2022-12-19T09:03:04.751Z,101231.09
2022-12-19T09:06:03.098Z,101225.66
2022-12-19T09:08:21.855Z,101229.41
2022-12-19T09:10:49.622Z,101231.25
2022-12-19T09:13:17.546Z,101225.81
2022-12-19T09:15:45.404Z,101225.81
2022-12-19T09:18:13.214Z,101221.94
2022-12-19T09:20:41.019Z,101217.50
2022-12-19T09:23:08.836Z,101216.66
2022-12-19T09:25:36.885Z,101225.53
2022-12-19T09:30:52.607Z,101208.34
2022-12-19T09:33:20.490Z,101210.06
2022-12-19T09:35:48.255Z,101206.31
2022-12-19T09:38:16.029Z,101212.59
2022-12-19T09:40:44.178Z,101208.03
2022-12-19T09:43:11.957Z,101212.59
2022-12-19T09:45:40.482Z,101210.91
2022-12-19T09:48:08.309Z,101217.06
2022-12-19T09:50:36.955Z,101213.63
2022-12-19T09:53:04.917Z,101205.47
2022-12-19T09:55:32.666Z,101199.31
2022-12-19T09:58:04.767Z,101206.31
2022-12-19T10:00:33.874Z,101193.75
2022-12-19T10:03:01.831Z,101196.28
2022-12-19T10:05:37.630Z,101187.16
2022-12-19T10:08:17.853Z,101182.03
2022-12-19T10:12:37.903Z,101182.88
2022-12-19T10:13:35.059Z,101182.19
2022-12-19T10:16:03.416Z,101173.31
2022-12-19T10:18:31.208Z,101173.50
2022-12-19T10:20:59.055Z,101179.22
2022-12-19T10:23:29.352Z,101177.66
2022-12-19T10:25:57.334Z,101178.81
2022-12-19T10:28:25.183Z,101174.25
2022-12-19T10:30:53.064Z,101176.09
2022-12-19T10:33:21.200Z,101166.25
2022-12-19T10:35:49.848Z,101172.41
2022-12-19T10:38:19.160Z,101163.53
2022-12-19T10:40:46.984Z,101168.97
2022-12-19T10:43:20.471Z,101161.66
2022-12-19T10:45:53.596Z,101153.50
2022-12-19T10:48:22.533Z,101154.38
2022-12-19T10:50:58.843Z,101134.66
2022-12-19T10:53:34.171Z,101137.22
2022-12-19T10:56:02.004Z,101131.06
2022-12-19T10:58:30.460Z,101131.94
2022-12-19T11:00:58.408Z,101129.91
2022-12-19T11:03:26.336Z,101111.06
2022-12-19T11:05:57.766Z,101111.91
2022-12-19T11:08:26.462Z,101103.91
2022-12-19T11:12:24.591Z,101109.19
2022-12-19T11:17:32.312Z,101094.75
2022-12-19T11:21:34.973Z,101087.13
2022-12-19T11:29:18.090Z,101074.56
2022-12-19T11:29:33.380Z,101073.41
2022-12-19T11:30:35.209Z,101067.13
2022-12-19T11:30:46.599Z,101058.97
2022-12-19T11:33:17.934Z,101061.81
2022-12-19T11:35:45.869Z,101059.81
2022-12-19T11:38:13.696Z,101060.50
2022-12-19T11:40:48.468Z,101049.47
2022-12-19T11:46:05.683Z,101047.78
2022-12-19T11:48:33.609Z,101048.75
2022-12-19T11:51:01.427Z,101038.22
2022-12-19T11:53:30.838Z,101037.38
2022-12-19T11:56:00.118Z,101030.25
2022-12-19T11:58:28.618Z,101037.50
2022-12-19T12:00:56.395Z,101025.66
2022-12-19T12:03:24.313Z,101026.66
2022-12-19T12:05:52.158Z,101025.97
2022-12-19T12:11:12.992Z,101012.53
2022-12-19T12:14:33.005Z,101012.69
2022-12-19T12:23:45.240Z,101020.84
2022-12-19T12:25:09.737Z,101018.13
2022-12-19T12:31:07.990Z,101014.00
2022-12-19T12:31:23.146Z,101007.72
2022-12-19T12:31:42.939Z,101014.13
2022-12-19T12:31:48.345Z,101013.28
2022-12-19T12:31:52.224Z,101011.44
2022-12-19T12:35:54.023Z,101001.72
2022-12-19T12:37:52.455Z,101000.72
2022-12-19T12:39:05.655Z,100998.00
2022-12-19T12:41:56.241Z,100985.44
2022-12-19T12:44:32.754Z,100984.75
2022-12-19T12:47:01.242Z,100987.28
2022-12-19T12:49:29.690Z,100997.00
2022-12-19T12:51:57.471Z,100995.28
2022-12-19T12:54:25.319Z,100992.41
2022-12-19T12:56:55.366Z,100979.69
2022-12-19T12:59:23.306Z,100977.97
2022-12-19T13:01:51.150Z,100984.25
2022-12-19T13:04:19.120Z,100989.69
2022-12-19T13:06:46.916Z,100986.81
2022-12-19T13:09:14.760Z,100987.66
2022-12-19T13:11:59.933Z,100979.41
2022-12-19T13:14:27.763Z,100973.97
2022-12-19T13:16:55.619Z,100979.53
2022-12-19T13:19:27.826Z,100972.22
2022-12-19T13:21:56.407Z,100972.09
2022-12-19T13:24:24.528Z,100968.22
2022-12-19T13:26:52.540Z,100972.81
2022-12-19T13:29:20.316Z,100966.50
2022-12-19T13:31:48.160Z,100967.38
2022-12-19T13:34:15.950Z,100972.81
2022-12-19T13:39:49.683Z,100971.94
2022-12-19T13:39:56.402Z,100984.84
2022-12-19T13:42:36.847Z,100975.97
2022-12-19T13:45:05.821Z,100979.69
2022-12-19T13:47:33.589Z,100974.25
2022-12-19T13:50:01.389Z,100986.81
2022-12-19T13:52:29.202Z,100985.13
2022-12-19T13:54:56.998Z,100977.81
2022-12-19T13:57:24.776Z,100971.69
2022-12-19T13:59:59.314Z,100965.41
2022-12-19T14:02:29.095Z,100971.84
2022-12-19T14:04:57.044Z,100967.28
2022-12-19T14:07:34.845Z,100971.00
2022-12-19T14:11:37.956Z,100963.16
2022-12-19T14:13:36.256Z,100956.72
2022-12-19T14:15:57.643Z,100949.59
2022-12-19T14:18:42.589Z,100958.59
2022-12-19T14:22:05.119Z,100956.19
2022-12-19T14:24:01.080Z,100959.94
2022-12-19T14:28:26.304Z,100960.59
2022-12-19T14:29:16.616Z,100960.91
2022-12-19T14:32:15.136Z,100958.22
2022-12-19T14:36:04.970Z,100954.31
2022-12-19T14:38:54.431Z,100948.41
2022-12-19T14:40:19.740Z,100960.69
2022-12-19T14:43:59.245Z,100955.91
2022-12-19T14:52:08.236Z,100967.22
2022-12-19T14:52:34.730Z,100952.91
2022-12-19T14:54:28.080Z,100977.59
2022-12-19T14:57:04.757Z,100981.84
2022-12-19T14:59:33.925Z,100982.56
2022-12-19T15:02:01.825Z,100975.06
2022-12-19T15:04:51.025Z,100978.00
2022-12-19T15:07:17.461Z,100973.13
2022-12-19T15:11:05.011Z,100963.88
2022-12-19T15:14:51.987Z,100966.25
2022-12-19T15:15:38.728Z,100969.47
2022-12-19T15:18:06.669Z,100974.41
2022-12-19T15:20:34.547Z,100968.22
2022-12-19T15:23:04.191Z,100974.88
2022-12-19T15:28:20.344Z,100970.19
2022-12-19T15:30:48.100Z,100969.84
2022-12-19T15:33:15.929Z,100963.19
2022-12-19T15:35:43.702Z,100956.56
2022-12-19T15:38:11.599Z,100961.38
2022-12-19T15:40:39.328Z,100958.75
2022-12-19T15:43:07.149Z,100950.91
2022-12-19T15:45:34.902Z,100954.97
2022-12-19T15:48:02.744Z,100958.91
2022-12-19T15:50:32.257Z,100950.91
2022-12-19T15:53:00.125Z,100950.09
2022-12-19T15:55:28.023Z,100945.25
2022-12-19T15:57:55.830Z,100933.41
2022-12-19T16:00:24.356Z,100925.66
2022-12-19T16:05:39.946Z,100932.34
2022-12-19T16:08:07.733Z,100929.22
2022-12-19T16:10:35.556Z,100928.28
2022-12-19T16:13:03.401Z,100930.44
2022-12-19T16:15:31.294Z,100935.66
2022-12-19T16:17:59.146Z,100942.66
2022-12-19T16:20:27.312Z,100943.25
2022-12-19T16:22:55.647Z,100947.59
2022-12-19T16:25:23.534Z,100937.44
2022-12-19T16:27:51.363Z,100938.66
2022-12-19T16:30:19.340Z,100940.63
2022-12-19T16:32:47.324Z,100938.16
2022-12-19T16:35:17.542Z,100939.13
2022-12-19T16:37:51.964Z,100945.06
2022-12-19T16:40:19.785Z,100941.44
2022-12-19T16:42:47.544Z,100942.44
2022-12-19T16:45:15.519Z,100936.59
2022-12-19T16:47:43.359Z,100948.03
2022-12-19T16:50:11.224Z,100948.84
2022-12-19T16:52:42.559Z,100943.94
2022-12-19T16:55:10.929Z,100940.19
2022-12-19T16:57:38.713Z,100940.75
2022-12-19T17:00:06.535Z,100940.59
2022-12-19T17:02:34.426Z,100927.78
2022-12-19T17:05:02.375Z,100929.50
2022-12-19T17:07:30.260Z,100930.63
2022-12-19T17:09:58.141Z,100923.28
2022-12-19T17:12:25.902Z,100922.50
2022-12-19T17:14:53.977Z,100914.44
2022-12-19T17:17:22.149Z,100925.72
2022-12-19T17:19:49.946Z,100928.28
2022-12-19T17:22:17.717Z,100936.38
2022-12-19T17:24:47.219Z,100927.03
2022-12-19T17:27:22.899Z,100931.78
2022-12-19T17:29:50.671Z,100930.25
2022-12-19T17:32:23.972Z,100928.22
2022-12-19T17:34:52.443Z,100939.03
2022-12-19T17:37:20.356Z,100936.56
2022-12-19T17:39:49.023Z,100928.53
2022-12-19T17:42:17.104Z,100941.81
2022-12-19T17:44:45.160Z,100941.84
2022-12-19T17:47:13.059Z,100935.13
2022-12-19T17:49:40.943Z,100922.53
2022-12-19T17:52:08.663Z,100925.72
2022-12-19T17:54:36.459Z,100925.28
2022-12-19T17:57:04.154Z,100929.53
2022-12-19T17:59:31.903Z,100939.47
2022-12-19T18:01:59.970Z,100931.88
2022-12-19T18:04:27.906Z,100925.97
2022-12-19T18:06:55.645Z,100920.78
2022-12-19T18:09:23.500Z,100912.94
2022-12-19T18:11:51.431Z,100905.78
2022-12-19T18:14:19.327Z,100903.88
2022-12-19T18:16:47.129Z,100907.56
2022-12-19T18:19:15.347Z,100908.34
2022-12-19T18:21:43.086Z,100908.94
2022-12-19T18:24:11.032Z,100913.66
2022-12-19T18:26:38.753Z,100916.59
2022-12-19T18:29:06.710Z,100912.97
2022-12-19T18:31:36.204Z,100921.13
2022-12-19T18:34:07.921Z,100916.00
2022-12-19T18:36:36.041Z,100910.66
2022-12-19T18:39:03.762Z,100909.75
2022-12-19T18:41:31.523Z,100914.44
2022-12-19T18:43:59.274Z,100906.53
2022-12-19T18:46:27.103Z,100888.53
2022-12-19T18:48:55.578Z,100878.69
2022-12-19T18:51:23.450Z,100889.66
2022-12-19T18:53:51.439Z,100879.47
2022-12-19T18:56:19.413Z,100870.53
2022-12-19T18:58:47.342Z,100874.56
2022-12-19T19:01:15.678Z,100865.03
2022-12-19T19:03:43.579Z,100865.81
2022-12-19T19:06:11.450Z,100863.84
2022-12-19T19:08:39.204Z,100858.94
2022-12-19T19:11:07.029Z,100851.38
2022-12-19T19:13:34.847Z,100851.06
2022-12-19T19:16:02.740Z,100854.88
2022-12-19T19:18:30.603Z,100850.38
2022-12-19T19:21:01.247Z,100862.13
2022-12-19T19:23:29.269Z,100854.28
2022-12-19T19:25:57.215Z,100854.44
2022-12-19T19:28:24.978Z,100860.41
2022-12-19T19:30:52.787Z,100846.47
2022-12-19T19:33:20.571Z,100839.88
2022-12-19T19:35:48.444Z,100844.44
2022-12-19T19:38:16.227Z,100853.44
2022-12-19T19:40:43.995Z,100845.69
2022-12-19T19:43:11.762Z,100849.06
2022-12-19T19:45:43.473Z,100842.41
2022-12-19T19:48:11.724Z,100838.34
2022-12-19T19:50:39.503Z,100834.47
2022-12-19T19:53:07.377Z,100839.75
2022-12-19T19:55:35.112Z,100842.28
2022-12-19T19:58:02.903Z,100838.19
2022-12-19T20:00:30.746Z,100840.78
2022-12-19T20:03:01.001Z,100842.91
2022-12-19T20:05:32.980Z,100849.38
2022-12-19T20:08:00.839Z,100857.09
2022-12-19T20:10:28.681Z,100853.16
2022-12-19T20:12:56.476Z,100857.72
2022-12-19T20:15:24.254Z,100855.72
2022-12-19T20:17:53.789Z,100850.94
2022-12-19T20:20:21.683Z,100843.84
2022-12-19T20:22:49.610Z,100851.78
2022-12-19T20:25:18.128Z,100844.47
2022-12-19T20:27:46.171Z,100838.03
2022-12-19T20:30:13.922Z,100841.69
2022-12-19T20:32:41.667Z,100833.94
2022-12-19T20:35:14.556Z,100846.81
2022-12-19T20:37:42.970Z,100843.28
2022-12-19T20:40:10.757Z,100843.13
2022-12-19T20:42:38.567Z,100847.38
2022-12-19T20:45:06.870Z,100854.53
2022-12-19T20:47:34.624Z,100865.47
2022-12-19T20:50:02.524Z,100868.97
2022-12-19T20:52:30.267Z,100859.72
2022-12-19T20:54:57.993Z,100853.50
2022-12-19T20:57:25.899Z,100841.97
2022-12-19T20:59:56.120Z,100853.16
2022-12-19T21:02:24.058Z,100865.00
2022-12-19T21:04:51.878Z,100861.50
2022-12-19T21:07:19.656Z,100857.31
2022-12-19T21:09:49.193Z,100859.09
2022-12-19T21:12:16.920Z,100856.78
2022-12-19T21:14:44.675Z,100854.81
2022-12-19T21:17:13.328Z,100859.28
2022-12-19T21:19:41.070Z,100862.72
2022-12-19T21:22:08.791Z,100872.69
2022-12-19T21:24:36.935Z,100874.44
2022-12-19T21:27:04.822Z,100859.44
2022-12-19T21:29:32.551Z,100855.72
2022-12-19T21:32:00.412Z,100858.13
2022-12-19T21:34:28.284Z,100852.34
2022-12-19T21:36:55.995Z,100854.78
2022-12-19T21:39:25.508Z,100864.69
2022-12-19T21:41:53.357Z,100869.66
2022-12-19T21:44:21.269Z,100862.00
2022-12-19T21:46:49.001Z,100867.81
2022-12-19T21:49:16.771Z,100871.75
2022-12-19T21:51:46.468Z,100862.19
2022-12-19T21:54:14.212Z,100866.31
2022-12-19T21:56:42.057Z,100866.50
2022-12-19T21:59:09.788Z,100862.41
2022-12-19T22:01:37.803Z,100837.56
2022-12-19T22:04:06.519Z,100832.66
2022-12-19T22:06:34.354Z,100841.84
2022-12-19T22:09:02.234Z,100839.47
2022-12-19T22:11:30.103Z,100830.59
2022-12-19T22:13:57.845Z,100855.69
2022-12-19T22:16:25.748Z,100855.00
2022-12-19T22:18:54.982Z,100873.88
2022-12-19T22:21:22.766Z,100874.94
2022-12-19T22:23:50.629Z,100864.03
2022-12-19T22:26:21.385Z,100858.94
2022-12-19T22:28:49.363Z,100860.13
2022-12-19T22:31:17.637Z,100856.34
2022-12-19T22:33:45.468Z,100846.81
2022-12-19T22:36:15.632Z,100843.78
2022-12-19T22:38:44.035Z,100836.97
2022-12-19T22:41:11.822Z,100831.88
2022-12-19T22:43:40.067Z,100823.88
2022-12-19T22:46:07.960Z,100814.19
2022-12-19T22:48:36.103Z,100813.50
2022-12-19T22:51:03.872Z,100814.53
2022-12-19T22:53:34.346Z,100817.41
2022-12-19T22:56:06.301Z,100817.41
2022-12-19T22:58:35.368Z,100814.88
2022-12-19T23:01:03.496Z,100804.16
2022-12-19T23:03:31.417Z,100812.50
2022-12-19T23:05:59.403Z,100812.66
2022-12-19T23:08:27.156Z,100804.66
2022-12-19T23:10:54.955Z,100797.53
2022-12-19T23:13:22.836Z,100787.66
2022-12-19T23:15:50.549Z,100796.84
2022-12-19T23:18:18.501Z,100798.56
2022-12-19T23:20:46.238Z,100798.72
2022-12-19T23:23:16.123Z,100785.31
2022-12-19T23:25:44.088Z,100785.31
2022-12-19T23:28:11.868Z,100787.16
2022-12-19T23:30:39.859Z,100771.00
2022-12-19T23:33:07.682Z,100773.03
2022-12-19T23:35:35.456Z,100763.00
2022-12-19T23:38:03.605Z,100756.72
2022-12-19T23:40:31.348Z,100757.75
2022-12-19T23:42:59.922Z,100755.03
2022-12-19T23:45:27.965Z,100755.03
2022-12-19T23:47:55.852Z,100765.22
2022-12-19T23:50:23.603Z,100759.09
2022-12-19T23:52:51.353Z,100755.34
2022-12-19T23:55:19.263Z,100758.25
2022-12-19T23:57:47.009Z,100744.81
